createdAt,value
2017-06-24T00:00:00.838Z,19.04
2017-06-24T00:02:34.671Z,19.01
2017-06-24T00:05:06.976Z,18.95
2017-06-24T00:07:39.219Z,18.91
2017-06-24T00:10:11.655Z,18.92
2017-06-24T00:12:44.596Z,18.90
2017-06-24T00:15:16.765Z,18.86
2017-06-24T00:17:48.934Z,18.87
2017-06-24T00:20:21.621Z,18.89
2017-06-24T00:22:53.656Z,18.87
2017-06-24T00:25:26.997Z,18.88
2017-06-24T00:27:59.834Z,18.88
2017-06-24T00:30:32.003Z,18.86
2017-06-24T00:33:04.559Z,18.84
2017-06-24T00:35:36.655Z,18.84
2017-06-24T00:38:09.032Z,18.90
2017-06-24T00:40:41.442Z,18.88
2017-06-24T00:43:13.843Z,18.91
2017-06-24T00:45:46.246Z,18.94
2017-06-24T00:48:18.891Z,19.00
2017-06-24T00:50:51.280Z,19.04
2017-06-24T00:53:23.699Z,19.07
2017-06-24T00:55:56.163Z,18.99
2017-06-24T00:58:28.563Z,18.98
2017-06-24T01:01:01.404Z,18.98
2017-06-24T01:03:33.503Z,19.07
2017-06-24T01:06:05.760Z,19.11
2017-06-24T01:08:38.132Z,19.12
2017-06-24T01:11:12.144Z,19.15
2017-06-24T01:13:44.899Z,19.09
2017-06-24T01:16:17.571Z,19.18
2017-06-24T01:18:49.772Z,19.25
2017-06-24T01:21:22.200Z,19.27
2017-06-24T01:23:54.999Z,19.25
2017-06-24T01:26:27.048Z,19.30
2017-06-24T01:28:59.768Z,19.26
2017-06-24T01:31:31.819Z,19.31
2017-06-24T01:34:04.370Z,19.35
2017-06-24T01:36:36.665Z,19.31
2017-06-24T01:39:09.287Z,19.29
2017-06-24T01:41:41.488Z,19.30
2017-06-24T01:44:14.339Z,19.27
2017-06-24T01:46:46.363Z,19.33
2017-06-24T01:49:19.591Z,19.36
2017-06-24T01:51:52.280Z,19.34
2017-06-24T01:54:24.767Z,19.37
2017-06-24T01:56:57.088Z,19.39
2017-06-24T01:59:30.451Z,19.36
2017-06-24T02:02:02.787Z,19.38
2017-06-24T02:04:35.302Z,19.44
2017-06-24T02:07:07.600Z,19.45
2017-06-24T02:09:39.923Z,19.47
2017-06-24T02:12:11.756Z,19.48
2017-06-24T02:14:44.148Z,19.47
2017-06-24T02:17:16.510Z,19.50
2017-06-24T02:19:48.816Z,19.50
2017-06-24T02:22:21.164Z,19.49
2017-06-24T02:24:53.623Z,19.49
2017-06-24T02:27:26.285Z,19.50
2017-06-24T02:30:00.482Z,19.48
2017-06-24T02:32:32.940Z,19.38
2017-06-24T02:35:05.408Z,19.45
2017-06-24T02:37:37.675Z,19.42
2017-06-24T02:40:10.303Z,19.42
2017-06-24T02:42:42.462Z,19.39
2017-06-24T02:45:14.960Z,19.43
2017-06-24T02:47:47.248Z,19.37
2017-06-24T02:50:19.716Z,19.35
2017-06-24T02:52:52.174Z,19.34
2017-06-24T02:55:24.845Z,19.25
2017-06-24T02:57:57.302Z,19.39
2017-06-24T03:00:29.564Z,19.47
2017-06-24T03:03:01.864Z,19.48
2017-06-24T03:05:33.983Z,19.48
2017-06-24T03:08:06.408Z,19.53
2017-06-24T03:10:38.919Z,19.57
2017-06-24T03:13:11.000Z,19.60
2017-06-24T03:15:43.495Z,19.52
2017-06-24T03:18:15.803Z,19.54
2017-06-24T03:20:48.284Z,19.58
2017-06-24T03:23:20.683Z,19.56
2017-06-24T03:25:53.304Z,19.54
2017-06-24T03:28:26.211Z,19.52
2017-06-24T03:30:58.768Z,19.44
2017-06-24T03:33:31.400Z,19.44
2017-06-24T03:36:03.745Z,19.44
2017-06-24T03:38:36.009Z,19.45
2017-06-24T03:41:08.572Z,19.43
2017-06-24T03:43:40.866Z,19.49
2017-06-24T03:46:13.277Z,19.45
2017-06-24T03:48:45.635Z,19.45
2017-06-24T03:51:18.001Z,19.40
2017-06-24T03:53:50.442Z,19.34
2017-06-24T03:56:23.262Z,19.45
2017-06-24T03:58:55.132Z,19.49
2017-06-24T04:01:27.525Z,19.51
2017-06-24T04:04:00.310Z,19.55
2017-06-24T04:06:32.491Z,19.58
2017-06-24T04:09:04.723Z,19.50
2017-06-24T04:11:37.172Z,19.47
2017-06-24T04:14:11.098Z,19.41
2017-06-24T04:16:43.279Z,19.43
2017-06-24T04:19:15.416Z,19.42
2017-06-24T04:21:47.679Z,19.42
2017-06-24T04:24:20.086Z,19.49
2017-06-24T04:26:52.454Z,19.45
2017-06-24T04:29:24.718Z,19.40
2017-06-24T04:31:57.076Z,19.40
2017-06-24T04:34:30.368Z,19.43
2017-06-24T04:37:03.060Z,19.52
2017-06-24T04:39:35.247Z,19.39
2017-06-24T04:42:09.246Z,19.41
2017-06-24T04:44:40.995Z,19.38
2017-06-24T04:47:13.424Z,19.49
2017-06-24T04:49:46.044Z,19.51
2017-06-24T04:52:18.227Z,19.56
2017-06-24T04:54:51.003Z,19.42
2017-06-24T04:57:26.195Z,19.28
2017-06-24T04:59:58.608Z,19.25
2017-06-24T05:02:31.287Z,19.25
2017-06-24T05:05:03.476Z,19.25
2017-06-24T05:07:36.619Z,19.29
2017-06-24T05:10:09.546Z,19.33
2017-06-24T05:12:41.643Z,19.35
2017-06-24T05:15:14.104Z,19.46
2017-06-24T05:17:46.533Z,19.49
2017-06-24T05:20:18.991Z,19.33
2017-06-24T05:22:51.446Z,19.39
2017-06-24T05:25:23.899Z,19.42
2017-06-24T05:27:57.279Z,19.26
2017-06-24T05:30:29.715Z,19.12
2017-06-24T05:33:02.580Z,19.14
2017-06-24T05:35:34.473Z,19.27
2017-06-24T05:38:06.907Z,19.32
2017-06-24T05:40:39.307Z,19.34
2017-06-24T05:43:11.708Z,19.46
2017-06-24T05:45:44.107Z,19.49
2017-06-24T05:48:17.295Z,19.41
2017-06-24T05:50:50.145Z,19.26
2017-06-24T05:53:22.180Z,19.24
2017-06-24T05:55:54.623Z,19.31
2017-06-24T05:58:26.938Z,19.06
2017-06-24T06:00:59.355Z,19.23
2017-06-24T06:03:31.701Z,19.29
2017-06-24T06:06:04.219Z,19.08
2017-06-24T06:08:36.408Z,18.93
2017-06-24T06:11:08.972Z,18.98
2017-06-24T06:13:41.484Z,19.16
2017-06-24T06:16:13.912Z,19.28
2017-06-24T06:18:46.351Z,19.36
2017-06-24T06:21:18.767Z,19.35
2017-06-24T06:23:52.299Z,19.38
2017-06-24T06:26:25.659Z,19.22
2017-06-24T06:28:58.563Z,19.22
2017-06-24T06:31:30.553Z,19.07
2017-06-24T06:34:02.856Z,19.23
2017-06-24T06:36:35.221Z,19.19
2017-06-24T06:39:08.577Z,19.22
2017-06-24T06:41:41.164Z,19.20
2017-06-24T06:44:13.639Z,19.28
2017-06-24T06:46:46.017Z,19.34
2017-06-24T06:49:18.316Z,19.15
2017-06-24T06:51:50.835Z,19.06
2017-06-24T06:54:23.275Z,19.16
2017-06-24T06:56:55.531Z,19.17
2017-06-24T06:59:27.976Z,19.28
2017-06-24T07:02:00.324Z,19.30
2017-06-24T07:04:32.899Z,19.26
2017-06-24T07:07:05.028Z,19.19
2017-06-24T07:09:37.455Z,19.33
2017-06-24T07:12:10.123Z,19.42
2017-06-24T07:14:42.232Z,19.31
2017-06-24T07:17:15.483Z,19.30
2017-06-24T07:19:48.366Z,19.17
2017-06-24T07:22:20.432Z,19.33
2017-06-24T07:24:53.115Z,19.24
2017-06-24T07:27:25.382Z,19.29
2017-06-24T07:29:57.675Z,19.13
2017-06-24T07:32:29.995Z,19.20
2017-06-24T07:35:02.467Z,19.33
2017-06-24T07:37:34.775Z,19.43
2017-06-24T07:40:07.332Z,19.35
2017-06-24T07:42:39.669Z,19.48
2017-06-24T07:45:12.063Z,19.53
2017-06-24T07:47:44.494Z,19.48
2017-06-24T07:50:16.851Z,19.38
2017-06-24T07:52:49.905Z,19.60
2017-06-24T07:55:22.748Z,19.64
2017-06-24T07:57:55.119Z,19.61
2017-06-24T08:00:28.383Z,19.83
2017-06-24T08:03:00.782Z,19.69
2017-06-24T08:05:34.079Z,19.69
2017-06-24T08:08:06.739Z,19.69
2017-06-24T08:10:38.988Z,19.66
2017-06-24T08:13:11.303Z,19.63
2017-06-24T08:15:43.675Z,19.55
2017-06-24T08:18:16.086Z,19.66
2017-06-24T08:20:48.546Z,19.64
2017-06-24T08:23:20.851Z,19.80
2017-06-24T08:25:53.255Z,19.73
2017-06-24T08:28:25.663Z,19.74
2017-06-24T08:30:58.035Z,19.88
2017-06-24T08:33:30.468Z,19.92
2017-06-24T08:36:02.878Z,19.81
2017-06-24T08:38:35.255Z,19.91
2017-06-24T08:41:07.900Z,19.90
2017-06-24T08:43:40.992Z,19.77
2017-06-24T08:46:13.297Z,19.86
2017-06-24T08:48:45.659Z,19.74
2017-06-24T08:51:18.052Z,19.71
2017-06-24T08:53:57.417Z,19.83
2017-06-24T08:56:29.983Z,19.84
2017-06-24T08:59:02.387Z,19.85
2017-06-24T09:01:34.733Z,19.95
2017-06-24T09:04:07.119Z,19.83
2017-06-24T09:06:39.555Z,19.95
2017-06-24T09:09:11.964Z,19.86
2017-06-24T09:11:45.311Z,19.76
2017-06-24T09:14:17.735Z,19.69
2017-06-24T09:16:51.000Z,19.69
2017-06-24T09:19:23.691Z,19.80
2017-06-24T09:21:56.062Z,19.90
2017-06-24T09:24:28.503Z,19.99
2017-06-24T09:27:00.976Z,19.91
2017-06-24T09:29:34.127Z,19.87
2017-06-24T09:32:06.807Z,19.95
2017-06-24T09:34:39.132Z,20.06
2017-06-24T09:37:12.470Z,20.17
2017-06-24T09:39:44.880Z,20.10
2017-06-24T09:42:17.220Z,20.17
2017-06-24T09:44:49.547Z,19.95
2017-06-24T09:47:24.939Z,19.97
2017-06-24T09:49:58.204Z,19.99
2017-06-24T09:52:31.251Z,20.04
2017-06-24T09:55:03.358Z,20.17
2017-06-24T09:57:35.748Z,20.35
2017-06-24T10:00:08.136Z,20.57
2017-06-24T10:02:40.566Z,20.56
2017-06-24T10:05:12.906Z,20.18
2017-06-24T10:07:46.129Z,20.14
2017-06-24T10:10:18.699Z,20.31
2017-06-24T10:12:51.083Z,20.44
2017-06-24T10:15:24.344Z,20.50
2017-06-24T10:17:56.804Z,20.58
2017-06-24T10:20:29.511Z,20.67
2017-06-24T10:23:01.733Z,20.46
2017-06-24T10:25:34.007Z,20.62
2017-06-24T10:28:06.759Z,20.83
2017-06-24T10:30:39.033Z,21.17
2017-06-24T10:33:11.417Z,21.03
2017-06-24T10:35:43.723Z,21.18
2017-06-24T10:38:16.096Z,21.23
2017-06-24T10:40:48.891Z,21.36
2017-06-24T10:43:20.931Z,21.55
2017-06-24T10:45:53.252Z,21.44
2017-06-24T10:48:25.665Z,21.17
2017-06-24T10:50:58.622Z,21.30
2017-06-24T10:53:30.490Z,21.57
2017-06-24T10:56:02.860Z,21.70
2017-06-24T10:58:35.307Z,21.89
2017-06-24T11:01:07.895Z,21.73
2017-06-24T11:03:40.999Z,21.38
2017-06-24T11:06:13.562Z,21.12
2017-06-24T11:08:46.071Z,21.23
2017-06-24T11:11:18.394Z,21.29
2017-06-24T11:13:50.867Z,21.51
2017-06-24T11:16:23.468Z,21.60
2017-06-24T11:18:55.575Z,21.63
2017-06-24T11:21:27.867Z,21.65
2017-06-24T11:24:00.220Z,21.77
2017-06-24T11:26:32.659Z,21.71
2017-06-24T11:29:05.047Z,21.58
2017-06-24T11:31:37.603Z,21.34
2017-06-24T11:34:11.123Z,21.52
2017-06-24T11:36:43.146Z,21.73
2017-06-24T11:39:15.569Z,21.68
2017-06-24T11:41:47.977Z,21.79
2017-06-24T11:44:20.418Z,21.80
2017-06-24T11:46:52.869Z,21.63
2017-06-24T11:49:25.652Z,21.51
2017-06-24T11:51:57.551Z,21.64
2017-06-24T11:54:29.899Z,21.80
2017-06-24T11:57:02.489Z,21.86
2017-06-24T11:59:34.843Z,22.04
2017-06-24T12:02:08.171Z,21.98
2017-06-24T12:04:41.562Z,21.97
2017-06-24T12:07:14.391Z,21.92
2017-06-24T12:09:46.615Z,22.05
2017-06-24T12:12:18.868Z,22.12
2017-06-24T12:14:51.276Z,22.14
2017-06-24T12:17:24.522Z,22.12
2017-06-24T12:19:57.111Z,21.85
2017-06-24T12:22:30.501Z,21.79
2017-06-24T12:25:02.992Z,21.64
2017-06-24T12:27:35.425Z,21.47
2017-06-24T12:30:07.698Z,21.34
2017-06-24T12:32:41.215Z,21.29
2017-06-24T12:35:13.639Z,21.29
2017-06-24T12:37:47.598Z,21.31
2017-06-24T12:40:19.406Z,21.45
2017-06-24T12:42:51.843Z,21.65
2017-06-24T12:45:24.251Z,21.62
2017-06-24T12:47:56.687Z,21.52
2017-06-24T12:50:29.260Z,21.47
2017-06-24T12:53:01.240Z,21.24
2017-06-24T12:55:33.524Z,21.28
2017-06-24T12:58:05.878Z,21.33
2017-06-24T13:00:38.562Z,21.18
2017-06-24T13:03:11.702Z,21.16
2017-06-24T13:05:44.119Z,21.12
2017-06-24T13:08:16.461Z,21.14
2017-06-24T13:10:49.380Z,21.04
2017-06-24T13:13:22.213Z,20.92
2017-06-24T13:15:54.846Z,20.84
2017-06-24T13:18:27.078Z,20.81
2017-06-24T13:20:59.443Z,20.80
2017-06-24T13:23:31.811Z,20.86
2017-06-24T13:28:43.784Z,20.84
2017-06-24T13:31:16.456Z,20.82
2017-06-24T13:33:49.312Z,20.80
2017-06-24T13:36:21.744Z,20.87
2017-06-24T13:38:54.208Z,20.72
2017-06-24T13:41:27.415Z,20.69
2017-06-24T13:43:59.994Z,20.63
2017-06-24T13:46:32.292Z,20.72
2017-06-24T13:49:05.581Z,20.85
2017-06-24T13:51:38.012Z,21.02
2017-06-24T13:54:10.584Z,21.04
2017-06-24T13:56:43.039Z,21.16
2017-06-24T13:59:15.294Z,21.27
2017-06-24T14:01:47.879Z,21.44
2017-06-24T14:04:19.964Z,21.30
2017-06-24T14:06:52.329Z,21.12
2017-06-24T14:09:25.035Z,21.15
2017-06-24T14:11:57.402Z,21.25
2017-06-24T14:14:29.780Z,21.27
2017-06-24T14:17:02.041Z,21.24
2017-06-24T14:19:34.359Z,21.56
2017-06-24T14:22:06.620Z,21.85
2017-06-24T14:24:39.084Z,21.85
2017-06-24T14:27:11.742Z,21.75
2017-06-24T14:29:43.911Z,21.71
2017-06-24T14:32:16.270Z,21.64
2017-06-24T14:34:48.784Z,21.56
2017-06-24T14:37:21.163Z,21.32
2017-06-24T14:39:53.549Z,21.40
2017-06-24T14:42:27.718Z,21.58
2017-06-24T14:45:00.953Z,21.63
2017-06-24T14:47:32.744Z,21.30
2017-06-24T14:50:05.072Z,21.31
2017-06-24T14:52:38.275Z,21.42
2017-06-24T14:55:11.273Z,21.19
2017-06-24T14:57:43.441Z,20.89
2017-06-24T15:00:16.129Z,20.99
2017-06-24T15:02:48.463Z,20.73
2017-06-24T15:05:20.603Z,20.59
2017-06-24T15:07:52.916Z,20.42
2017-06-24T15:10:25.418Z,20.54
2017-06-24T15:12:57.963Z,20.67
2017-06-24T15:15:30.088Z,20.82
2017-06-24T15:18:02.547Z,20.97
2017-06-24T15:20:34.811Z,21.16
2017-06-24T15:23:07.217Z,21.29
2017-06-24T15:25:39.650Z,21.32
2017-06-24T15:28:12.880Z,21.21
2017-06-24T15:30:45.424Z,21.25
2017-06-24T15:33:18.187Z,21.18
2017-06-24T15:35:50.203Z,21.14
2017-06-24T15:38:23.044Z,21.17
2017-06-24T15:40:55.136Z,20.95
2017-06-24T15:43:27.520Z,20.81
2017-06-24T15:46:00.815Z,20.69
2017-06-24T15:48:33.251Z,20.75
2017-06-24T15:51:05.640Z,20.58
2017-06-24T15:53:38.189Z,20.47
2017-06-24T15:56:10.556Z,20.49
2017-06-24T15:58:42.933Z,20.67
2017-06-24T16:01:15.610Z,20.86
2017-06-24T16:03:47.621Z,20.87
2017-06-24T16:06:20.142Z,20.97
2017-06-24T16:08:52.720Z,21.01
2017-06-24T16:11:24.872Z,21.07
2017-06-24T16:13:57.994Z,21.03
2017-06-24T16:16:30.677Z,21.04
2017-06-24T16:19:03.352Z,21.09
2017-06-24T16:21:35.699Z,21.08
2017-06-24T16:24:08.708Z,21.05
2017-06-24T16:26:41.271Z,21.09
2017-06-24T16:29:13.651Z,20.98
2017-06-24T16:31:46.081Z,20.85
2017-06-24T16:34:18.615Z,20.78
2017-06-24T16:36:51.690Z,20.83
2017-06-24T16:39:24.088Z,20.84
2017-06-24T16:41:57.367Z,20.89
2017-06-24T16:44:29.840Z,20.97
2017-06-24T16:47:02.272Z,21.13
2017-06-24T16:49:35.064Z,21.26
2017-06-24T16:52:07.011Z,21.16
2017-06-24T16:54:39.415Z,21.10
2017-06-24T16:57:11.899Z,21.18
2017-06-24T16:59:44.131Z,21.26
2017-06-24T17:02:16.859Z,21.05
2017-06-24T17:04:48.844Z,20.66
2017-06-24T17:07:21.279Z,20.57
2017-06-24T17:09:53.682Z,20.38
2017-06-24T17:12:27.702Z,20.13
2017-06-24T17:15:01.192Z,20.03
2017-06-24T17:17:34.644Z,19.97
2017-06-24T17:20:07.071Z,19.88
2017-06-24T17:22:39.483Z,19.86
2017-06-24T17:25:11.624Z,19.79
2017-06-24T17:27:44.027Z,19.64
2017-06-24T17:30:16.412Z,19.53
2017-06-24T17:32:48.884Z,19.45
2017-06-24T17:35:21.519Z,19.36
2017-06-24T17:37:53.557Z,19.34
2017-06-24T17:40:26.095Z,19.40
2017-06-24T17:42:58.301Z,19.43
2017-06-24T17:45:31.827Z,19.43
2017-06-24T17:48:04.077Z,19.54
2017-06-24T17:50:36.817Z,19.64
2017-06-24T17:53:08.779Z,19.73
2017-06-24T17:55:41.064Z,19.74
2017-06-24T17:58:13.891Z,19.80
2017-06-24T18:00:45.855Z,19.79
2017-06-24T18:03:18.239Z,19.84
2017-06-24T18:05:50.638Z,19.82
2017-06-24T18:08:22.967Z,19.82
2017-06-24T18:11:37.344Z,19.95
2017-06-24T18:14:09.468Z,19.99
2017-06-24T18:16:42.813Z,19.99
2017-06-24T18:19:15.144Z,20.07
2017-06-24T18:21:47.564Z,20.06
2017-06-24T18:24:20.731Z,20.02
2017-06-24T18:26:53.408Z,20.01
2017-06-24T18:29:25.763Z,19.84
2017-06-24T18:31:59.041Z,19.80
2017-06-24T18:34:31.496Z,19.81
2017-06-24T18:37:03.831Z,19.75
2017-06-24T18:39:36.148Z,19.76
2017-06-24T18:42:08.375Z,19.75
2017-06-24T18:44:40.803Z,19.79
2017-06-24T18:47:13.246Z,19.78
2017-06-24T18:49:45.556Z,19.77
2017-06-24T18:52:17.932Z,19.70
2017-06-24T18:54:51.226Z,19.66
2017-06-24T18:57:24.699Z,19.65
2017-06-24T18:59:57.227Z,19.55
2017-06-24T19:02:29.591Z,19.60
2017-06-24T19:05:02.012Z,19.64
2017-06-24T19:07:34.399Z,19.60
2017-06-24T19:10:06.689Z,19.54
2017-06-24T19:12:39.156Z,19.49
2017-06-24T19:15:11.456Z,19.56
2017-06-24T19:17:43.874Z,19.55
2017-06-24T19:20:16.388Z,19.56
2017-06-24T19:22:49.019Z,19.56
2017-06-24T19:25:21.137Z,19.50
2017-06-24T19:27:53.472Z,19.46
2017-06-24T19:30:25.815Z,19.36
2017-06-24T19:32:58.448Z,19.40
2017-06-24T19:35:31.401Z,19.36
2017-06-24T19:38:03.207Z,19.34
2017-06-24T19:40:35.587Z,19.41
2017-06-24T19:43:08.024Z,19.41
2017-06-24T19:45:40.443Z,19.35
2017-06-24T19:48:12.983Z,19.38
2017-06-24T19:50:45.173Z,19.40
2017-06-24T19:53:17.464Z,19.30
2017-06-24T19:55:49.836Z,19.28
2017-06-24T19:58:22.092Z,19.29
2017-06-24T20:00:54.547Z,19.18
2017-06-24T20:03:26.955Z,19.25
2017-06-24T20:05:59.236Z,19.27
2017-06-24T20:08:32.048Z,19.29
2017-06-24T20:11:04.203Z,19.30
2017-06-24T20:13:36.429Z,19.32
2017-06-24T20:16:08.888Z,19.28
2017-06-24T20:18:41.506Z,19.35
2017-06-24T20:21:13.827Z,19.34
2017-06-24T20:23:46.204Z,19.29
2017-06-24T20:26:18.707Z,19.26
2017-06-24T20:28:52.256Z,19.18
2017-06-24T20:31:25.231Z,19.22
2017-06-24T20:33:58.536Z,19.22
2017-06-24T20:36:31.039Z,19.23
2017-06-24T20:39:03.372Z,19.13
2017-06-24T20:41:35.725Z,19.08
2017-06-24T20:44:08.354Z,19.07
2017-06-24T20:46:40.353Z,19.04
2017-06-24T20:49:12.792Z,19.09
2017-06-24T20:51:45.289Z,18.99
2017-06-24T20:54:18.217Z,18.86
2017-06-24T20:56:51.411Z,18.85
2017-06-24T20:59:23.437Z,18.91
2017-06-24T21:01:55.811Z,18.90
2017-06-24T21:04:28.217Z,18.86
2017-06-24T21:07:00.711Z,18.91
2017-06-24T21:09:34.038Z,18.85
2017-06-24T21:12:07.175Z,18.83
2017-06-24T21:14:39.816Z,18.81
2017-06-24T21:17:12.676Z,18.78
2017-06-24T21:19:45.370Z,18.82
2017-06-24T21:22:18.135Z,18.79
2017-06-24T21:24:50.529Z,18.76
2017-06-24T21:27:22.971Z,18.71
2017-06-24T21:29:55.387Z,18.61
2017-06-24T21:32:27.735Z,18.72
2017-06-24T21:35:00.060Z,18.77
2017-06-24T21:37:32.501Z,18.85
2017-06-24T21:40:04.767Z,18.86
2017-06-24T21:42:37.088Z,18.83
2017-06-24T21:45:09.523Z,18.82
2017-06-24T21:47:42.849Z,18.87
2017-06-24T21:50:15.184Z,18.86
2017-06-24T21:52:47.537Z,18.74
2017-06-24T21:55:19.981Z,18.82
2017-06-24T21:57:52.312Z,18.85
2017-06-24T22:00:24.727Z,18.86
2017-06-24T22:02:57.055Z,18.93
2017-06-24T22:05:29.702Z,18.91
2017-06-24T22:08:01.834Z,18.91
2017-06-24T22:10:34.339Z,18.83
2017-06-24T22:13:06.615Z,18.84
2017-06-24T22:15:38.956Z,18.97
2017-06-24T22:18:11.260Z,18.98
2017-06-24T22:20:43.626Z,18.93
2017-06-24T22:23:16.000Z,18.97
2017-06-24T22:25:49.245Z,18.91
2017-06-24T22:28:21.764Z,18.98
2017-06-24T22:30:54.037Z,18.89
2017-06-24T22:33:26.432Z,18.99
2017-06-24T22:35:58.797Z,18.97
2017-06-24T22:38:31.281Z,19.03
2017-06-24T22:41:03.676Z,19.04
2017-06-24T22:43:36.114Z,19.05
2017-06-24T22:46:08.685Z,19.03
2017-06-24T22:48:41.680Z,18.99
2017-06-24T22:51:14.183Z,18.98
2017-06-24T22:53:46.814Z,19.02
2017-06-24T22:56:19.759Z,19.06
2017-06-24T22:58:54.339Z,19.06
2017-06-24T23:01:26.656Z,19.01
2017-06-24T23:03:59.124Z,19.13
2017-06-24T23:06:32.152Z,19.08
2017-06-24T23:09:04.963Z,19.01
2017-06-24T23:11:38.180Z,18.95
2017-06-24T23:14:11.458Z,19.01
2017-06-24T23:16:44.090Z,18.94
2017-06-24T23:19:16.479Z,18.90
2017-06-24T23:21:48.828Z,18.84
2017-06-24T23:24:21.355Z,18.87
2017-06-24T23:26:53.587Z,18.90
2017-06-24T23:29:26.054Z,18.83
2017-06-24T23:31:58.443Z,18.89
2017-06-24T23:34:30.743Z,18.91
2017-06-24T23:37:03.355Z,18.91
2017-06-24T23:39:37.088Z,18.96
2017-06-24T23:42:10.501Z,18.90
2017-06-24T23:44:43.220Z,18.91
2017-06-24T23:47:15.443Z,18.90
2017-06-24T23:49:48.288Z,18.94
2017-06-24T23:52:21.102Z,18.92
2017-06-24T23:54:53.599Z,18.91
2017-06-24T23:57:25.855Z,18.83
2017-06-24T23:59:58.172Z,18.84
